This is the latest recevied weather packets stored in our database for station/object LKTB. If no packets are shown the sender has not sent any weather packets the latest 1 day(s).
| Time | Temp. | Humidity | Pressure | Rain* | Wind** | Luminosity | Snow |
|---|---|---|---|---|---|---|---|
| 1836273910 | 12.78° C | 93% | 1024 hPa | - | 0.89 m/s, 10° | - | - |
| 1778019666 | 16.11° C | 55% | - | - | 5.36 m/s, 140° | - | - |
| 1778018548 | 16.11° C | 55% | 1005 hPa | - | 4.02 m/s, 130° | - | - |
| 1778016736 | 16.11° C | 51% | 1005 hPa | - | 4.02 m/s, 120° | - | - |
| 1778016116 | 16.11° C | 51% | - | - | 5.36 m/s, 130° | - | - |
| 1778014959 | 16.11° C | 51% | 1006 hPa | - | 4.02 m/s, 110° | - | - |
| 1778013144 | 17.22° C | 48% | 1006 hPa | - | 4.47 m/s, 120° | - | - |
| 1778012481 | 17.22° C | 45% | - | - | 5.36 m/s, 130° | - | - |
| 1778011367 | 17.22° C | 45% | 1006 hPa | - | 5.36 m/s, 120° | - | - |
| 1778009544 | 17.78° C | 42% | 1005 hPa | - | 4.47 m/s, 110° | - | - |
| 1778008899 | 17.78° C | 45% | - | - | 5.36 m/s, 140° | - | - |
| 1778007759 | 17.78° C | 45% | 1006 hPa | - | 4.47 m/s, 130° | - | - |
| 1778005951 | 18.89° C | 42% | 1005 hPa | - | 6.26 m/s, 140° | - | - |
| 1778005282 | 20° C | 40% | - | - | 6.26 m/s, 150° | - | - |
| 1778004146 | 20° C | 40% | 1005 hPa | - | 6.71 m/s, 150° | - | - |
| 1778002351 | 22.22° C | 35% | 1005 hPa | - | 8.05 m/s, 160° | - | - |
| 1778001698 | 22.78° C | 33% | - | - | 8.05 m/s, 170° | - | - |
| 1778000546 | 22.78° C | 33% | 1005 hPa | - | 8.94 m/s, 160° | - | - |
| 1777999623 | 23.89° C | 31% | 1005 hPa | - | 8.94 m/s, 160° | - | - |
| 1777998758 | 23.89° C | 31% | 1005 hPa | - | 9.39 m/s, 160° | - | - |
| 1777998174 | 25° C | 29% | - | - | 7.15 m/s, 170° | - | - |
| 1777996947 | 25° C | 29% | 1005 hPa | - | 7.6 m/s, 150° | - | - |
| 1777995151 | 26.11° C | 22% | 1005 hPa | - | 6.71 m/s, 170° | - | - |
| 1777994481 | 26.11° C | 22% | - | - | 8.05 m/s, 170° | - | - |
| 1777993353 | 26.11° C | 22% | 1005 hPa | - | 7.15 m/s, 160° | - | - |
* Rain since midnight (hover to see other rain measurements)
** Current wind speed in m/s (hover to see current wind gust speed)